福岡空港の過去48時間の天気

福岡空港 (Fukuoka)

現在時刻: 3/22 10:02 JST (3/22 01:02 UTC) 以下の時間は現地時間です。

過去48時間のMETAR気象情報
時間 風向 風速(m/s) 視程 気温(℃) 湿度(%) 気圧(hPa) 天気現象
22 09:30 北北東 6 8000m 13 62 1013
22 09:00 5 7000m 13 62 1014
22 08:30 5 10km以上 13 62 1013
22 08:00 4 10km以上 13 67 1013
22 07:30 2 10km以上 13 62 1013
22 07:00 4 10km以上 12 67 1012
22 06:30 5 10km以上 13 58 1012
22 06:00 4 10km以上 13 54 1012
22 05:30 5 10km以上 13 54 1012
22 05:00 6 10km以上 13 67 1011
22 04:30 西北西 4 10km以上 13 67 1011
22 04:00 西 4 10km以上 13 67 1011
22 03:30 西 4 10km以上 13 67 1011
22 03:00 西 4 10km以上 13 67 1010
22 02:30 西 6 10km以上 13 67 1011
22 02:00 西北西 5 10km以上 13 67 1010
22 01:30 西北西 5 10km以上 13 67 1011
22 01:00 西 5 10km以上 13 67 1010
22 00:30 西北西 5 10km以上 13 67 1010
22 00:00 西 4 10km以上 14 67 1011
21 23:30 西北西 5 10km以上 14 67 1011
21 23:00 西 6 10km以上 14 72 1011
21 22:30 西北西 5 10km以上 14 72 1010
21 22:00 西 4 10km以上 15 67 1010
21 21:30 西 6 10km以上 14 72 1009
21 21:00 西 5 10km以上 15 67 1009
21 20:30 西 6 10km以上 15 67 1009
21 20:00 西北西 8 10km以上 15 67 1008
21 19:30 西 5 10km以上 15 67 1008
21 19:00 西 7 10km以上 15 67 1008
21 18:30 西 6 10km以上 15 72 1008
21 18:00 西北西 6 10km以上 15 72 1007
21 17:30 西 6 10km以上 16 72 1007
21 17:00 西 5 10km以上 17 68 1006
21 16:30 西北西 6 10km以上 18 64 1006
21 16:00 北西 6 10km以上 18 68 1005
21 15:30 北西 7 10km以上 18 68 1005
21 15:00 北西 8 10km以上 18 73 1005
21 14:30 北西 8 10km以上 19 68 1004
21 14:00 西北西 4 10km以上 20 68 1004
21 13:30 北北西 5 10km以上 20 68 1004
21 13:00 北西 5 10km以上 19 73 1005
21 12:30 北北西 6 10km以上 20 73 1005
21 12:00 北北西 6 10km以上 21 73 1005
21 11:30 不定 2 10km以上 20 83 1006
21 11:00 不定 2 10km以上 19 83 1006
21 10:30 西 2 8000m 17 94 1006
21 10:00 西北西 4 7000m 17 94 1006 弱いしゅう雨
21 09:30 西 5 6000m 17 94 1006 弱いしゅう雨
21 09:00 西北西 5 6000m 17 100 1006 弱いしゅう雨
21 08:36 不定 2 6000m 18 94 1006 弱いしゅう雨
21 08:30 不定 1 9000m 17 94 1006 弱いしゅう雨
21 08:23 2 9000m 18 88 1006 弱いしゅう雨
21 08:00 不定 1 10km以上 18 88 1005 弱いしゅう雨
21 07:30 南南東 7 10km以上 17 94 1005 弱いしゅう雨
21 07:00 南東 7 10km以上 17 94 1005 弱いしゅう雨
21 06:30 南南東 8 10km以上 17 88 1005
21 06:00 南南東 8 10km以上 17 88 1005
21 05:30 南南東 8 10km以上 17 88 1004
21 05:00 南南東 9 10km以上 17 83 1004
21 04:30 南東 8 10km以上 17 83 1005
21 04:00 南東 7 10km以上 17 83 1005
21 03:30 南東 6 10km以上 16 88 1005
21 03:00 南東 9 10km以上 16 88 1005
21 02:47 南東 11 5000m 16 88 1005 弱い雨 もや
21 02:39 南東 12 7000m 17 77 1005 弱い雨
21 02:30 南東 11 10km以上 17 77 1006
21 02:00 南南東 10 10km以上 18 68 1006
21 01:30 南南東 11 10km以上 18 64 1006
21 01:16 南南東 11 10km以上 18 64 1006
21 01:00 南東 13 10km以上 18 64 1006
21 00:41 南南東 11 10km以上 18 60 1007
21 00:30 南南東 10 10km以上 18 64 1007
21 00:00 南南東 10 10km以上 18 60 1007
20 23:32 南東 9 10km以上 18 60 1008
20 23:30 南東 9 10km以上 18 60 1008
20 23:02 南南東 13 10km以上 18 56 1008
20 23:00 南南東 13 10km以上 18 56 1008
20 22:34 南東 10 10km以上 17 59 1008
20 22:30 南東 10 10km以上 17 59 1008
20 22:17 南東 11 10km以上 17 55 1008
20 22:00 南南東 14 10km以上 17 55 1008
20 21:33 南南東 12 10km以上 17 52 1009
20 21:00 南南東 8 10km以上 18 45 1009
20 20:30 4 10km以上 17 48 1010
20 20:19 3 10km以上 17 48 1011
20 20:00 南南東 6 10km以上 17 48 1010
20 19:30 南東 6 10km以上 17 45 1010
20 19:00 南東 4 10km以上 16 45 1010 弱い雨
20 18:30 3 10km以上 17 42 1011 弱い雨
20 18:00 北西 3 10km以上 17 39 1013
20 17:30 北西 5 10km以上 18 37 1013
20 17:00 北西 4 10km以上 21 23 1012
20 16:30 北西 2 10km以上 20 26 1012
20 16:00 北西 3 10km以上 19 32 1013
20 15:30 北西 5 10km以上 22 15 1013
20 15:00 南南東 6 10km以上 22 14 1012
20 14:30 3 10km以上 23 17 1012
20 14:00 南南東 6 10km以上 22 19 1013
20 13:30 南南東 8 10km以上 21 23 1013
20 13:00 東南東 7 10km以上 20 24 1014
20 12:30 南東 9 10km以上 20 28 1014
20 12:00 南東 9 10km以上 21 31 1014
20 11:30 南東 8 10km以上 18 37 1015
20 11:00 7 10km以上 17 39 1015
20 10:30 南南東 8 10km以上 16 42 1015
RJFF 220030Z 02011KT 330V060 8000 FEW020 SCT030 BKN040 13/06 Q1013 NOSIG
RJFF 220000Z 01009KT 7000 FEW020 SCT040 BKN050 13/06 Q1014 NOSIG
RJFF 212330Z 01010KT 340V050 9999 FEW020 SCT040 BKN050 13/06 Q1013 NOSIG
RJFF 212300Z 35007KT 320V030 9999 FEW020 SCT025 BKN045 13/07 Q1013 NOSIG
RJFF 212230Z 36004KT 320V030 9999 FEW030 BKN045 BKN/// 13/06 Q1013 NOSIG RMK 1CU030 5SC045 A2992
RJFF 212200Z 01007KT 340V050 9999 FEW030 BKN045 12/06 Q1012 NOSIG
RJFF 212130Z 36009KT 9999 FEW030 BKN045 13/05 Q1012 NOSIG
RJFF 212100Z 36008KT 320V030 9999 FEW030 BKN045 BKN150 13/04 Q1012 NOSIG
RJFF 212030Z AUTO 36010KT 9999 OVC037 13/04 Q1012 NOSIG
RJFF 212000Z AUTO 35012KT 9999 SCT036 BKN038 OVC042 13/07 Q1011 NOSIG
RJFF 211930Z AUTO 29007KT 9999 FEW030 BKN037 OVC150 13/07 Q1011 NOSIG
RJFF 211900Z AUTO 28007KT 260V320 9999 FEW035 BKN038 OVC140 13/07 Q1011 NOSIG
RJFF 211830Z AUTO 28007KT 250V320 9999 BKN037 BKN040 OVC140 13/07 Q1011 NOSIG
RJFF 211800Z AUTO 28008KT 240V310 9999 FEW027 OVC140 13/07 Q1010 NOSIG
RJFF 211730Z AUTO 28011KT 9999 FEW025 SCT030 BKN033 13/07 Q1011 NOSIG
RJFF 211700Z AUTO 29010KT 250V330 9999 NSC 13/07 Q1010 NOSIG
RJFF 211630Z AUTO 29010KT 9999 NSC 13/07 Q1011 NOSIG
RJFF 211600Z AUTO 28009KT 220V310 9999 NSC 13/07 Q1010 NOSIG
RJFF 211530Z AUTO 29009KT 260V320 9999 FEW032 OVC130 13/07 Q1010 NOSIG
RJFF 211500Z AUTO 28008KT 240V310 9999 FEW024 SCT032 OVC130 14/08 Q1011 NOSIG
RJFF 211430Z AUTO 30010KT 9999 FEW025 BKN030 BKN130 14/08 Q1011 NOSIG
RJFF 211400Z AUTO 28012KT 9999 FEW024 SCT026 OVC028 14/09 Q1011 NOSIG
RJFF 211330Z 29010KT 9999 FEW015 BKN025 14/09 Q1010 TEMPO TL1400 28015G25KT
RJFF 211300Z 28007KT 220V330 9999 FEW015 BKN025 15/09 Q1010 TEMPO TL1400 28015G25KT RMK 1CU015 7CU025 A2982
RJFF 211230Z 28011KT 230V300 9999 FEW015 BKN025 BKN140 14/09 Q1009 TEMPO TL1400 28015G25KT
RJFF 211200Z 27010KT 240V310 9999 FEW015 BKN020 BKN150 15/09 Q1009 TEMPO 28015G25KT
RJFF 211130Z 27011KT 240V310 9999 FEW020 BKN160 15/09 Q1009 TEMPO 28015G25KT
RJFF 211100Z 29015G26KT 9999 FEW015 BKN160 15/09 Q1008 NOSIG RMK 1CU015 6AC160 A2978
RJFF 211030Z 27010KT 240V310 9999 FEW015 BKN025 BKN150 15/09 Q1008 NOSIG RMK 1CU015 5CU025 6AC150 A2978
RJFF 211000Z 28014KT 9999 FEW015 SCT025 BKN150 15/09 Q1008 NOSIG RMK 1CU015 4CU025 6AC150 A2977
RJFF 210930Z 27011KT 240V320 9999 FEW020 SCT030 BKN/// 15/10 Q1008 NOSIG
RJFF 210900Z 29011G22KT 240V340 9999 FEW020 BKN/// 15/10 Q1007 NOSIG RMK 1CU020 A2976
RJFF 210830Z 28011KT 240V330 9999 FEW020 BKN/// 16/11 Q1007 NOSIG
RJFF 210800Z 28010KT 250V320 9999 FEW020 BKN/// 17/11 Q1006 NOSIG
RJFF 210730Z 29012KT 260V320 9999 FEW020 SCT035 BKN/// 18/11 Q1006 NOSIG
RJFF 210700Z 31012KT 280V340 9999 FEW020 BKN/// 18/12 Q1005 NOSIG
RJFF 210630Z 31013KT 9999 FEW025 BKN/// 18/12 Q1005 NOSIG
RJFF 210600Z 31015KT 9999 FEW025 BKN/// 18/13 Q1005 NOSIG
RJFF 210530Z 32015KT 9999 FEW025 BKN/// 19/13 Q1004 NOSIG
RJFF 210500Z 30008KT 260V020 9999 FEW025 BKN/// 20/14 Q1004 NOSIG RMK 1CU025 A2967
RJFF 210430Z 33010KT 270V350 9999 FEW025 BKN/// 20/14 Q1004 NOSIG
RJFF 210400Z 32010KT 290V350 9999 FEW025 SCT/// 19/14 Q1005 TEMPO 29015G25KT
RJFF 210330Z 33012KT 9999 FEW025 20/15 Q1005 TEMPO 29015G25KT RMK 1CU025 A2970
RJFF 210300Z 33011KT 9999 FEW025 21/16 Q1005 TEMPO 29015G25KT
RJFF 210230Z VRB04KT 9999 FEW015 20/17 Q1006 BECMG 29010KT TEMPO 29015G25KT RMK 1CU015 A2971
RJFF 210200Z VRB04G14KT 9999 FEW010 SCT030 19/16 Q1006 BECMG 29010KT TEMPO 29015G25KT RMK 1ST010 3CU030 A2971
RJFF 210130Z 28004KT 230V360 8000 FEW005 SCT008 BKN015 17/16 Q1006 TEMPO 29015G25KT
RJFF 210100Z 30007KT 260V330 7000 -SHRA FEW005 BKN007 BKN010 17/16 Q1006 TEMPO 4000 -SHRA BR
RJFF 210030Z 28010KT 220V300 6000 -SHRA FEW005 BKN007 BKN010 17/16 Q1006 TEMPO 4000 -SHRA BR
RJFF 210000Z 29009KT 260V320 6000 -SHRA SCT005 BKN007 BKN008 17/17 Q1006 TEMPO 4000 -SHRA BR FEW003 BKN005 BKN007 RMK 3ST005 5ST007 6ST008 A2972
RJFF 202336Z VRB04KT 6000 -SHRA FEW005 BKN008 BKN010 18/17 Q1006 RMK 2ST005 5ST008 6CU010 A2972
RJFF 202330Z VRB02KT 9000 -SHRA FEW005 SCT008 BKN010 17/16 Q1006 BECMG 28010KT TEMPO 4000 -SHRA BR FEW003 SCT005 BKN008 RMK 1ST005 3ST008 5CU010 A2972
RJFF 202323Z 35004KT 290V090 9000 -SHRA FEW005 SCT008 BKN010 18/16 Q1006 RMK 1ST005 3ST008 5CU010 A2972
RJFF 202300Z VRB01KT 9999 -SHRA FEW010 SCT020 BKN025 18/16 Q1005 BECMG 28010KT RMK 1ST010 4CU020 6CU025 A2970
RJFF 202230Z 15013KT 9999 -SHRA FEW010 SCT020 BKN025 17/16 Q1005 BECMG 27005KT
RJFF 202200Z 14013KT 9999 -SHRA FEW010 BKN020 BKN025 17/16 Q1005 BECMG 27005KT RMK 1ST010 5CU020 6CU025 A2968
RJFF 202130Z 15015KT 9999 FEW010 BKN020 BKN025 17/15 Q1005 BECMG 27005KT
RJFF 202100Z 15015KT 9999 FEW010 SCT015 BKN020 17/15 Q1005 BECMG 18005KT RMK 1ST010 3CU015 6CU020 A2968
RJFF 202030Z AUTO 15016KT 9999 OVC023 //////TCU 17/15 Q1004 BECMG 17005KT
RJFF 202000Z AUTO 15018KT 9999 BKN027 OVC044 //////TCU 17/14 Q1004 NOSIG RMK A2967 TCU 30KM S AND 40KM SW MOV UNKNOWN
RJFF 201930Z AUTO 14015KT 9999 FEW027 SCT030 BKN033 17/14 Q1005 NOSIG RMK A2968
RJFF 201900Z AUTO 14013G23KT 9999 FEW031 SCT049 BKN050 //////TCU 17/14 Q1005 TEMPO 4000 -SHRA BR RMK A2969 TCU 30KM AND 40KM S MOV UNKNOWN
RJFF 201830Z AUTO 13011KT 9999 FEW011 BKN050 OVC060 //////TCU 16/14 Q1005 TEMPO 14020G30KT 3000 TSRA BR
RJFF 201800Z AUTO 14017KT 9999 FEW011 BKN060 BKN070 16/14 Q1005 TEMPO 16020G30KT 3000 TSRA BR
RJFF 201747Z AUTO 14021G35KT 5000 -RA BR FEW011 SCT038 BKN060 //////TCU 16/14 Q1005 RMK A2969 TCU 10KM SW MOV UNKNOWN P/FR
RJFF 201739Z AUTO 14023G35KT 7000 -RA FEW016 SCT029 BKN032 //////TCU 17/13 Q1005 RMK A2970 TCU 15KM W MOV UNKNOWN
RJFF 201730Z AUTO 14021KT 9999 FEW024 SCT029 BKN032 //////TCU 17/13 Q1006 TEMPO 16025G35KT 3000 TSRA BR
RJFF 201700Z AUTO 16019G29KT 9999 OVC031 18/12 Q1006 TEMPO FM1730 3000 TSRA BR RMK A2973
RJFF 201630Z AUTO 15022G34KT 9999 BKN033 OVC044 18/11 Q1006 TEMPO FM1730 3000 TSRA BR
RJFF 201616Z AUTO 15022G32KT 9999 BKN034 OVC080 18/11 Q1006 RMK A2973
RJFF 201600Z AUTO 14025KT 9999 BKN034 BKN070 BKN080 18/11 Q1006 TEMPO 16025G35KT RMK A2973
RJFF 201541Z AUTO 15022G32KT 9999 FEW035 SCT039 OVC070 18/10 Q1007 RMK A2974
RJFF 201530Z AUTO 15020KT 9999 FEW035 BKN039 OVC060 18/11 Q1007 TEMPO 16020G30KT RMK A2975
RJFF 201500Z AUTO 15020KT 9999 FEW037 BKN042 OVC050 18/10 Q1007 TEMPO 16020G30KT
RJFF 201432Z AUTO 14017G27KT 110V180 9999 FEW038 SCT047 BKN050 18/10 Q1008 RMK A2977
RJFF 201430Z AUTO 14018KT 110V180 9999 FEW038 SCT048 BKN050 18/10 Q1008 TEMPO 16035G50KT RMK A2977
RJFF 201402Z AUTO 15025G35KT 9999 FEW040 OVC070 18/09 Q1008 RMK A2977
RJFF 201400Z AUTO 15026KT 9999 FEW042 OVC070 18/09 Q1008 TEMPO 16035G50KT
RJFF 201334Z 14020G30KT 9999 FEW040 SCT070 BKN080 17/09 Q1008 RMK 1CU040 3AC070 7AC080 A2978
RJFF 201330Z 13020KT 9999 FEW040 SCT070 BKN080 17/09 Q1008 TEMPO 16035G50KT RMK 1CU040 3AC070 7AC080 A2978
RJFF 201317Z 14021G31KT 9999 FEW040 SCT070 BKN090 17/08 Q1008 RMK 1CU040 3AC070 7AC090 A2979
RJFF 201300Z 16027KT 9999 FEW040 SCT080 BKN100 17/08 Q1008 TEMPO 16035G50KT RMK 1CU040 3AC080 7AC100 A2978
RJFF 201233Z 15024G34KT CAVOK 17/07 Q1009 RMK 7AC090 A2979
RJFF 201200Z 15016KT CAVOK 18/06 Q1009 NOSIG RMK 7AC090 A2982
RJFF 201130Z 09007KT 040V140 CAVOK 17/06 Q1010 BECMG 16012KT
RJFF 201119Z 09006KT 040V140 CAVOK 17/06 Q1011 RMK A2986
RJFF 201100Z 15011KT CAVOK 17/06 Q1010 NOSIG RMK A2985
RJFF 201030Z 14011KT CAVOK 17/05 Q1010 NOSIG RMK A2984 MOD TURB OBS AT 1010Z 15NM E STOUT BTN 18000FT AND 15000FT IN DES E170
RJFF 201000Z 14008KT 9999 -RA NSC 16/04 Q1010 NOSIG RMK 1SC060 3AC080 5AC100 A2985
RJFF 200930Z 09005KT 060V130 9999 -RA NSC 17/04 Q1011 BECMG TL1030 16010KT RMK 1AC080 4AC100 8AS130 A2987 P/FR
RJFF 200900Z 32006KT 290V010 CAVOK 17/03 Q1013 BECMG TL1000 16013KT RMK A2994
RJFF 200830Z 32009KT CAVOK 18/03 Q1013 BECMG 14009KT
RJFF 200800Z 31007KT 260V340 CAVOK 21/M01 Q1012 BECMG 14009KT RMK A2991
RJFF 200730Z 31004KT 270V360 CAVOK 20/00 Q1012 BECMG 14009KT
RJFF 200700Z 32006KT 270V340 CAVOK 19/02 Q1013 WS R16 BECMG 14009KT
RJFF 200630Z 31010KT 270V340 9999 FEW035 BKN/// 22/M06 Q1013 NOSIG
RJFF 200600Z 16012KT CAVOK 22/M07 Q1012 NOSIG RMK A2991
RJFF 200530Z 18006KT CAVOK 23/M03 Q1012 NOSIG RMK A2991
RJFF 200500Z 15011KT CAVOK 22/M03 Q1013 NOSIG RMK A2992
RJFF 200430Z 16016KT CAVOK 21/M01 Q1013 WS R16 NOSIG
RJFF 200400Z 12014KT CAVOK 20/M01 Q1014 NOSIG RMK A2994
RJFF 200330Z 14017KT CAVOK 20/01 Q1014 NOSIG RMK A2994
RJFF 200300Z 14017KT CAVOK 21/03 Q1014 NOSIG RMK A2996
RJFF 200230Z 14015KT CAVOK 18/03 Q1015 NOSIG RMK A2997
RJFF 200200Z 17014KT CAVOK 17/03 Q1015 NOSIG RMK A2998
RJFF 200130Z 15015KT CAVOK 16/03 Q1015 NOSIG RMK A3000